Peace — WBF3649 — position and weather

sailwx.info

Track history (hours):
 
Tides and Currents Weather Stations Pressure Air Temp Water Temp Dewpoint Dewpoint Depression Visibility Wind Speed Wind Dir Waves Ship Positions

Peace

Owner: BOWMAN, ERIC L, VENTURA, CA. More information available from US FCC via Universal Licensing System and Coast Guard Vessel Documentation Center.

Last reported at 2018-Aug-20 14:35 UTC. Time now 2018-Aug-20 16:49 UTC.
Position N 32°39' W 119°09'.

Length 20 m.

Type: Diving. MMSI: 367166830.

Date/timePositionNaut miles runAvg speedWind from/ knotsBaromVisibWave heightAir tempDewpointWater temp
2018-Aug-20 14:35N 32°39' W 119°09'39 9.1
2018-Aug-20 10:23N 33°18' W 119°11'3 9.3
2018-Aug-20 10:02N 33°21' W 119°11'1 9.2
2018-Aug-20 09:55N 33°22' W 119°11'5 9.1
2018-Aug-20 09:23N 33°27' W 119°12'4 9.2
2018-Aug-20 09:00N 33°30' W 119°12'5 9.4
2018-Aug-20 08:29N 33°35' W 119°13'5 9.1
2018-Aug-20 07:59N 33°40' W 119°13'5 8.8
2018-Aug-20 07:28N 33°44' W 119°14'4 8.8
2018-Aug-20 07:03N 33°48' W 119°15'1 8.7
2018-Aug-20 07:00N 33°48' W 119°15'6 8.9
2018-Aug-20 06:19N 33°54' W 119°15'2 9.1
2018-Aug-20 06:03N 33°57' W 119°15'0 9.3
2018-Aug-20 06:00N 33°57' W 119°15'5 9.4
2018-Aug-20 05:26N 34°03' W 119°16'4 9.6
2018-Aug-20 05:03N 34°06' W 119°16'111.1
2018-Aug-20 05:00N 34°07' W 119°16'2 9.7
2018-Aug-20 04:47N 34°09' W 119°17'4 9.8
2018-Aug-20 04:25N 34°13' W 119°17'2 3.7
2018-Aug-20 03:49N 34°15' W 119°16'0 0.0
2018-Aug-20 03:29N 34°15' W 119°16'0 0.0
2018-Aug-20 02:58N 34°15' W 119°16'0 0.0
2018-Aug-20 02:25N 34°15' W 119°16'0 0.0
2018-Aug-20 01:55N 34°15' W 119°16'0 0.0
2018-Aug-20 01:28N 34°15' W 119°16'0 0.3
2018-Aug-20 00:49N 34°14' W 119°16'0 0.5
2018-Aug-20 00:28N 34°15' W 119°16'0 0.8
2018-Aug-20 00:00N 34°15' W 119°16'5 9.4
2018-Aug-19 23:27N 34°13' W 119°22'4 9.7
2018-Aug-19 23:00N 34°12' W 119°27'5 9.4
2018-Aug-19 22:29N 34°10' W 119°32'5 9.3
2018-Aug-19 22:00N 34°09' W 119°38'5 9.3
2018-Aug-19 21:29N 34°07' W 119°43'5 9.3
2018-Aug-19 20:59N 34°05' W 119°48'3 4.8
2018-Aug-19 20:28N 34°04' W 119°51'0 0.0
2018-Aug-19 19:49N 34°04' W 119°51'0 0.0
2018-Aug-19 19:28N 34°04' W 119°51'0 0.0
2018-Aug-19 18:58N 34°04' W 119°51'1 1.8
2018-Aug-19 18:26N 34°04' W 119°52'2 3.3
2018-Aug-19 17:51N 34°05' W 119°54'0 0.0
2018-Aug-19 17:18N 34°05' W 119°54'0 0.0
2018-Aug-19 17:00N 34°05' W 119°54'0 0.0
2018-Aug-19 16:27N 34°05' W 119°54'1 1.5
2018-Aug-19 15:59N 34°05' W 119°54'0 0.1
2018-Aug-19 15:16N 34°04' W 119°54'0 0.0
2018-Aug-19 14:55N 34°04' W 119°54'0 0.0
2018-Aug-19 14:28N 34°04' W 119°54'0 0.1
2018-Aug-19 13:59N 34°04' W 119°54'4 7.1
2018-Aug-19 13:29N 34°05' W 119°49'5 8.7
2018-Aug-19 12:57N 34°05' W 119°44'4 8.7
2018-Aug-19 12:28N 34°08' W 119°39'5 8.9
2018-Aug-19 11:57N 34°09' W 119°34'5 9.1
2018-Aug-19 11:27N 34°11' W 119°29'4 9.1
2018-Aug-19 10:59N 34°12' W 119°24'4 9.1
2018-Aug-19 10:29N 34°14' W 119°19'3 5.8
2018-Aug-19 09:59N 34°15' W 119°16'0 0.0
2018-Aug-19 09:20N 34°15' W 119°16'0 0.0
2018-Aug-19 08:59N 34°15' W 119°16'0 0.0
2018-Aug-19 08:20N 34°15' W 119°16'0 0.0
2018-Aug-19 07:41N 34°15' W 119°16'0 0.0
2018-Aug-19 07:29N 34°15' W 119°16'0 0.0
2018-Aug-19 06:59N 34°15' W 119°16'0 0.0
2018-Aug-19 06:29N 34°15' W 119°16'0 0.0
2018-Aug-19 05:56N 34°15' W 119°16'0 0.0
2018-Aug-19 05:29N 34°15' W 119°16'0 0.0
2018-Aug-19 04:56N 34°15' W 119°16'0 0.0
2018-Aug-19 04:29N 34°15' W 119°16'0 0.0
2018-Aug-19 03:53N 34°15' W 119°16'0 0.0
2018-Aug-19 03:26N 34°15' W 119°16'0 0.0
2018-Aug-19 02:59N 34°15' W 119°16'0 0.0
2018-Aug-19 02:29N 34°15' W 119°16'0 0.5
2018-Aug-19 01:58N 34°15' W 119°16'5 8.7
2018-Aug-19 01:24N 34°14' W 119°22'4 9.7
2018-Aug-19 00:57N 34°13' W 119°27'4 9.4
2018-Aug-19 00:30N 34°13' W 119°32'5 9.1
2018-Aug-19 00:00N 34°12' W 119°38'5 9.5
2018-Aug-18 23:26N 34°11' W 119°44'4 9.6
2018-Aug-18 23:00N 34°11' W 119°49'5 9.5
2018-Aug-18 22:30N 34°10' W 119°55'4 8.7
2018-Aug-18 22:00N 34°10' W 119°60'5 9.5
2018-Aug-18 21:30N 34°09' W 120°06'5 9.7
2018-Aug-18 21:00N 34°09' W 120°11'5 9.9
2018-Aug-18 20:30N 34°08' W 120°17'5 9.6
2018-Aug-18 20:00N 34°07' W 120°23'1 2.8
2018-Aug-18 19:28N 34°07' W 120°25'0 0.0
2018-Aug-18 19:00N 34°07' W 120°25'0 0.0
2018-Aug-18 18:30N 34°07' W 120°25'0 0.5
2018-Aug-18 18:00N 34°07' W 120°25'0 0.0
2018-Aug-18 17:30N 34°07' W 120°25'0 0.0
2018-Aug-18 17:00N 34°07' W 120°25'0 0.0
2018-Aug-18 16:30N 34°07' W 120°25'0 0.0
2018-Aug-18 15:58N 34°07' W 120°25'1 2.5
2018-Aug-18 15:30N 34°06' W 120°23'0 0.3
2018-Aug-18 14:56N 34°06' W 120°23'0 0.0
2018-Aug-18 14:24N 34°06' W 120°23'0 0.0
2018-Aug-18 14:00N 34°06' W 120°23'3 6.3
2018-Aug-18 13:30N 34°03' W 120°21'0 0.1
2018-Aug-18 12:58N 34°03' W 120°21'0 0.0
2018-Aug-18 12:25N 34°03' W 120°21'0 0.0
2018-Aug-18 11:58N 34°03' W 120°21'0 0.0
2018-Aug-18 11:28N 34°03' W 120°21'0 0.0
2018-Aug-18 10:58N 34°03' W 120°21'0 0.0
2018-Aug-18 10:25N 34°03' W 120°21'0 0.0
2018-Aug-18 09:58N 34°03' W 120°21'0 0.0
2018-Aug-18 09:19N 34°03' W 120°21'0 0.0
2018-Aug-18 08:55N 34°03' W 120°21'0 0.0
2018-Aug-18 08:28N 34°03' W 120°21'0 0.0
2018-Aug-18 07:59N 34°03' W 120°21'0 0.0
2018-Aug-18 07:29N 34°03' W 120°21'0 0.0
2018-Aug-18 06:59N 34°03' W 120°21'0 0.0
2018-Aug-18 06:23N 34°03' W 120°21'0 0.0
2018-Aug-18 05:59N 34°03' W 120°21'0 0.0
2018-Aug-18 05:29N 34°03' W 120°21'0 0.0
2018-Aug-18 04:56N 34°03' W 120°21'0 0.0
2018-Aug-18 04:23N 34°03' W 120°21'0 0.0
2018-Aug-18 03:56N 34°03' W 120°21'0 0.0
2018-Aug-18 03:29N 34°03' W 120°21'0 0.0
2018-Aug-18 02:58N 34°03' W 120°21'0 0.0
2018-Aug-18 02:22N 34°03' W 120°21'0 0.0
2018-Aug-18 01:58N 34°03' W 120°21'5 0.6
2018-Aug-17 17:50N 34°04' W 120°27'2 7.5
2018-Aug-17 17:30N 34°05' W 120°25'1 2.6
2018-Aug-17 17:00N 34°06' W 120°24'0 0.0
2018-Aug-17 16:28N 34°06' W 120°24'0 0.0
2018-Aug-17 16:00N 34°06' W 120°24'2 3.1
2018-Aug-17 15:30N 34°07' W 120°26'1 1.1
2018-Aug-17 14:58N 34°07' W 120°27'0 0.1
2018-Aug-17 14:30N 34°07' W 120°27'2 2.0
2018-Aug-17 13:30N 34°06' W 120°25'4 8.6
2018-Aug-17 12:59N 34°05' W 120°19'4 8.7
2018-Aug-17 12:30N 34°05' W 120°14'4 8.7
2018-Aug-17 12:00N 34°06' W 120°09'4 8.8
2018-Aug-17 11:30N 34°07' W 120°04'5 8.9
2018-Aug-17 11:00N 34°07' W 119°58'5 8.8
2018-Aug-17 10:23N 34°08' W 119°52'3 9.0
2018-Aug-17 10:00N 34°09' W 119°48'6 9.4
2018-Aug-17 09:24N 34°10' W 119°41'5 9.5
2018-Aug-17 08:54N 34°11' W 119°36'4 9.8
2018-Aug-17 08:30N 34°12' W 119°31'5 9.8
2018-Aug-17 07:56N 34°13' W 119°25'4 9.4
2018-Aug-17 07:30N 34°14' W 119°20'3 6.4
2018-Aug-17 06:59N 34°15' W 119°16'0 0.0
2018-Aug-17 06:29N 34°15' W 119°16'0 0.0
2018-Aug-17 05:59N 34°15' W 119°16'0 0.0
2018-Aug-17 05:29N 34°15' W 119°16'0 0.0
2018-Aug-17 04:59N 34°15' W 119°16'0 0.0
2018-Aug-17 04:29N 34°15' W 119°16'0 0.0
2018-Aug-17 03:35N 34°15' W 119°16'0 0.1
2018-Aug-17 03:29N 34°15' W 119°16'0 0.0
2018-Aug-17 02:59N 34°15' W 119°16'0 0.0
2018-Aug-17 02:23N 34°15' W 119°16'0 0.0
2018-Aug-17 01:59N 34°15' W 119°16'0 0.0
2018-Aug-17 01:26N 34°15' W 119°16'0 0.0
2018-Aug-17 00:59N 34°15' W 119°16'0 0.0
2018-Aug-17 00:26N 34°15' W 119°16'0 0.0
2018-Aug-16 23:59N 34°15' W 119°16'0 0.0
2018-Aug-16 23:26N 34°15' W 119°16'0 0.0
2018-Aug-16 22:59N 34°15' W 119°16'0 0.0
2018-Aug-16 22:29N 34°15' W 119°16'0 0.0
2018-Aug-16 21:59N 34°15' W 119°16'0 0.0
2018-Aug-16 21:29N 34°15' W 119°16'0 0.0
2018-Aug-16 20:56N 34°15' W 119°16'0 0.0
2018-Aug-16 20:29N 34°15' W 119°16'0 0.0
2018-Aug-16 19:59N 34°15' W 119°16'0 0.0
2018-Aug-16 19:29N 34°15' W 119°16'0 0.0
2018-Aug-16 18:59N 34°15' W 119°16'0 0.0
2018-Aug-16 18:29N 34°15' W 119°16'0 0.0
2018-Aug-16 17:59N 34°15' W 119°16'0 0.0
2018-Aug-16 17:17N 34°15' W 119°16'0 0.0
2018-Aug-16 16:59N 34°15' W 119°16'0 0.0
2018-Aug-16 16:29N 34°15' W 119°16'0 0.0
2018-Aug-16 15:59N 34°15' W 119°16'0 0.0
2018-Aug-16 15:26N 34°15' W 119°16'0 0.0
2018-Aug-16 14:59N 34°15' W 119°16'0 0.0
2018-Aug-16 14:29N 34°15' W 119°16'0 0.0
2018-Aug-16 13:53N 34°15' W 119°16'0 0.0
2018-Aug-16 13:23N 34°15' W 119°16'0 0.0
2018-Aug-16 12:59N 34°15' W 119°16'0 0.0
2018-Aug-16 12:29N 34°15' W 119°16'0 0.0
2018-Aug-16 11:59N 34°15' W 119°16'0 0.0
2018-Aug-16 11:23N 34°15' W 119°16'0 0.0
2018-Aug-16 10:53N 34°15' W 119°16'0 0.0
2018-Aug-16 10:29N 34°15' W 119°16'0 0.0
2018-Aug-16 09:56N 34°15' W 119°16'0 0.0
2018-Aug-16 09:29N 34°15' W 119°16'0 0.0
2018-Aug-16 08:59N 34°15' W 119°16'0 0.0
2018-Aug-16 08:29N 34°15' W 119°16'0 0.0
2018-Aug-16 07:56N 34°15' W 119°16'0 0.0
2018-Aug-16 07:26N 34°15' W 119°16'0 0.0
2018-Aug-16 06:59N 34°15' W 119°16'0 0.0
2018-Aug-16 06:29N 34°15' W 119°16'0 0.0
2018-Aug-16 05:59N 34°15' W 119°16'0 0.0
2018-Aug-16 05:29N 34°15' W 119°16'0 0.0
2018-Aug-16 04:59N 34°15' W 119°16'0 0.0
2018-Aug-16 04:23N 34°15' W 119°16'0 0.0
2018-Aug-16 03:59N 34°15' W 119°16'0 0.0
2018-Aug-16 03:29N 34°15' W 119°16'0 0.0
2018-Aug-16 02:59N 34°15' W 119°16'0 0.0
2018-Aug-16 02:29N 34°15' W 119°16'0 0.0
2018-Aug-16 01:50N 34°15' W 119°16'0 0.0
2018-Aug-16 01:26N 34°15' W 119°16'1 1.6
2018-Aug-16 00:59N 34°14' W 119°16'5 8.7
2018-Aug-16 00:24N 34°09' W 119°15'4 9.2
2018-Aug-16 00:00N 34°05' W 119°15'5 9.2
2018-Aug-15 23:30N 34°01' W 119°13'5 9.2
2018-Aug-15 23:00N 33°56' W 119°12'5 9.1
2018-Aug-15 22:30N 33°52' W 119°11'4 8.7
2018-Aug-15 22:00N 33°48' W 119°09'5 8.9
2018-Aug-15 21:30N 33°43' W 119°08'5 9.0
2018-Aug-15 21:00N 33°39' W 119°06'5 9.6
2018-Aug-15 20:29N 33°34' W 119°05'6 1.8
2018-Aug-15 17:08N 33°29' W 119°03'0 0.0
2018-Aug-15 17:00N 33°29' W 119°03'1 0.4
2018-Aug-15 15:38N 33°29' W 119°04'0 0.1
2018-Aug-15 15:25N 33°29' W 119°04'0 0.0
2018-Aug-15 14:24N 33°29' W 119°04'0 0.0
2018-Aug-15 14:00N 33°29' W 119°04'3 0.6
2018-Aug-15 09:38N 33°27' W 119°02'1 9.1
2018-Aug-15 09:29N 33°26' W 119°02'5 9.2
2018-Aug-15 08:59N 33°21' W 119°03'4 9.1
2018-Aug-15 08:30N 33°17' W 119°03'5 8.8
2018-Aug-15 07:59N 33°12' W 119°03'4 8.6
2018-Aug-15 07:29N 33°08' W 119°04'19 0.5
2018-Aug-13 13:45N 32°49' W 119°10'27 8.8
2018-Aug-13 10:43N 33°16' W 119°11'4 8.6
2018-Aug-13 10:13N 33°20' W 119°11'2 8.9
2018-Aug-13 09:59N 33°23' W 119°12'5 8.9
2018-Aug-13 09:27N 33°27' W 119°12'5 8.9
2018-Aug-13 08:53N 33°32' W 119°13'4 8.6
2018-Aug-13 08:22N 33°37' W 119°13'3 9.0
2018-Aug-13 08:00N 33°40' W 119°14'5 9.3
2018-Aug-13 07:30N 33°45' W 119°14'5 9.6
2018-Aug-13 07:00N 33°49' W 119°14'5 9.8
2018-Aug-13 06:30N 33°54' W 119°15'5 9.6
2018-Aug-13 06:00N 33°59' W 119°15'5 8.9
2018-Aug-13 05:29N 34°04' W 119°16'4 9.0
2018-Aug-13 05:00N 34°08' W 119°16'5 9.2
2018-Aug-13 04:30N 34°13' W 119°16'2 3.8
2018-Aug-13 03:57N 34°15' W 119°16'0 0.0
2018-Aug-13 03:27N 34°15' W 119°16'0 0.0
2018-Aug-13 02:51N 34°15' W 119°16'0 0.0
2018-Aug-13 02:27N 34°15' W 119°16'0 0.0
2018-Aug-13 01:23N 34°15' W 119°16'2 5.5
2018-Aug-13 01:00N 34°13' W 119°18'5 9.5
2018-Aug-13 00:30N 34°09' W 119°21'5 9.4
2018-Aug-12 23:59N 34°05' W 119°24'5 8.1
2018-Aug-12 23:25N 34°01' W 119°26'0 0.1
2018-Aug-12 22:55N 34°01' W 119°26'0 0.0
2018-Aug-12 22:25N 34°01' W 119°26'0 0.0
2018-Aug-12 21:58N 34°01' W 119°26'0 0.1
2018-Aug-12 21:26N 34°01' W 119°26'3 6.4
2018-Aug-12 21:00N 34°01' W 119°23'1 2.1
2018-Aug-12 20:30N 34°01' W 119°22'1 1.0
2018-Aug-12 20:00N 34°01' W 119°22'0 0.0
2018-Aug-12 19:30N 34°01' W 119°22'0 0.0
2018-Aug-12 18:57N 34°01' W 119°22'0 0.1
2018-Aug-12 18:29N 34°01' W 119°22'1 1.7
2018-Aug-12 17:56N 34°01' W 119°23'0 0.0
2018-Aug-12 17:05N 34°01' W 119°23'0 0.0
2018-Aug-12 16:59N 34°01' W 119°23'0 0.0
2018-Aug-12 16:29N 34°01' W 119°23'4 7.4
2018-Aug-12 16:00N 34°04' W 119°23'5 9.1
2018-Aug-12 15:30N 34°08' W 119°20'5 9.3
2018-Aug-12 14:59N 34°12' W 119°18'3 5.2
2018-Aug-12 14:29N 34°15' W 119°16'0 0.0
2018-Aug-12 13:59N 34°15' W 119°16'0 0.0
2018-Aug-12 13:29N 34°15' W 119°16'0 0.0
2018-Aug-12 12:59N 34°15' W 119°16'0 0.0
2018-Aug-12 12:29N 34°15' W 119°16'0 0.0
2018-Aug-12 11:59N 34°15' W 119°16'0 0.0
2018-Aug-12 11:29N 34°15' W 119°16'0 0.0
2018-Aug-12 10:59N 34°15' W 119°16'0 0.0
2018-Aug-12 10:26N 34°15' W 119°16'0 0.0
2018-Aug-12 09:59N 34°15' W 119°16'0 0.0
2018-Aug-12 09:26N 34°15' W 119°16'0 0.0
2018-Aug-12 08:59N 34°15' W 119°16'0 0.0
2018-Aug-12 08:17N 34°15' W 119°16'0 0.0
2018-Aug-12 07:56N 34°15' W 119°16'0 0.0
2018-Aug-12 07:29N 34°15' W 119°16'0 0.0
2018-Aug-12 06:53N 34°15' W 119°16'0 0.0
2018-Aug-12 06:29N 34°15' W 119°16'0 0.0
2018-Aug-12 05:59N 34°15' W 119°16'0 0.0
2018-Aug-12 05:23N 34°15' W 119°16'0 0.0
2018-Aug-12 04:59N 34°15' W 119°16'0 0.0
2018-Aug-12 04:29N 34°15' W 119°16'0 0.0
2018-Aug-12 03:59N 34°15' W 119°16'0 0.0
2018-Aug-12 03:29N 34°15' W 119°16'0 0.0
2018-Aug-12 02:59N 34°15' W 119°16'0 0.0
2018-Aug-12 02:26N 34°15' W 119°16'0 0.0
2018-Aug-12 01:59N 34°15' W 119°16'0 0.0
2018-Aug-12 01:29N 34°15' W 119°16'0 0.0
2018-Aug-12 00:59N 34°15' W 119°16'0 0.0
2018-Aug-12 00:24N 34°15' W 119°16'0 0.0
2018-Aug-11 23:59N 34°15' W 119°16'0 0.0
2018-Aug-11 23:29N 34°15' W 119°16'0 0.3
2018-Aug-11 22:58N 34°14' W 119°16'0 0.1
2018-Aug-11 22:30N 34°15' W 119°16'0 0.3
2018-Aug-11 21:59N 34°15' W 119°16'3 5.3
2018-Aug-11 21:29N 34°13' W 119°19'5 9.3
2018-Aug-11 21:00N 34°10' W 119°23'5 9.3
2018-Aug-11 20:30N 34°07' W 119°27'3 6.7
2018-Aug-11 20:00N 34°05' W 119°30'3 2.0
2018-Aug-11 18:23N 34°03' W 119°33'0 0.5
2018-Aug-11 18:00N 34°03' W 119°33'2 2.6
2018-Aug-11 17:21N 34°03' W 119°35'0 0.0
2018-Aug-11 16:39N 34°03' W 119°35'0 0.0
2018-Aug-11 16:03N 34°03' W 119°35'0 0.0
2018-Aug-11 16:00N 34°03' W 119°35'1 1.2
2018-Aug-11 15:19N 34°03' W 119°36'0 0.0
2018-Aug-11 14:55N 34°03' W 119°36'0 0.0
2018-Aug-11 14:28N 34°03' W 119°36'0 0.0
2018-Aug-11 13:49N 34°03' W 119°36'0 1.0
2018-Aug-11 13:30N 34°03' W 119°36'1 2.2
2018-Aug-11 12:58N 34°03' W 119°35'4 7.9
2018-Aug-11 12:26N 34°02' W 119°30'5 8.6
2018-Aug-11 11:55N 33°59' W 119°26'4 8.9
2018-Aug-11 11:29N 33°56' W 119°23'4 9.2
2018-Aug-11 11:00N 33°53' W 119°19'710.1
2018-Aug-11 10:20N 33°49' W 119°13'17 9.7
2018-Aug-11 08:35N 33°41' W 118°55'1 9.3
2018-Aug-11 08:28N 33°40' W 118°54'4 9.5
2018-Aug-11 08:00N 33°38' W 118°50'5 9.3
2018-Aug-11 07:30N 33°35' W 118°45'14 3.3
2018-Aug-11 03:14N 33°27' W 118°31'0 0.0
2018-Aug-11 02:56N 33°27' W 118°31'0 0.0
2018-Aug-11 01:02N 33°27' W 118°31'0 0.1
2018-Aug-11 00:59N 33°27' W 118°31'2 3.5
2018-Aug-11 00:30N 33°29' W 118°32'0 0.6
2018-Aug-10 23:39N 33°29' W 118°33'0 0.0
2018-Aug-10 23:18N 33°29' W 118°33'0 0.0
2018-Aug-10 22:57N 33°29' W 118°33'0 0.0
2018-Aug-10 20:51N 33°29' W 118°33'1 2.0
2018-Aug-10 20:30N 33°29' W 118°34'3 1.2
2018-Aug-10 17:41N 33°28' W 118°30'  
Track history (hours):
 
Tides and Currents Weather Stations Pressure Air Temp Water Temp Dewpoint Dewpoint Depression Visibility Wind Speed Wind Dir Waves Ship Positions

Peace

Owner: BOWMAN, ERIC L, VENTURA, CA. More information available from US FCC via Universal Licensing System and Coast Guard Vessel Documentation Center.

Last reported at 2018-Aug-20 14:35 UTC. Time now 2018-Aug-20 16:49 UTC.
Position N 32°39' W 119°09'.

Length 20 m.

Type: Diving. MMSI: 367166830.

Date/timePositionNaut miles runAvg speedWind from/ knotsBaromVisibWave heightAir tempDewpointWater temp
2018-Aug-20 14:35N 32°39' W 119°09'39 9.1
2018-Aug-20 10:23N 33°18' W 119°11'3 9.3
2018-Aug-20 10:02N 33°21' W 119°11'1 9.2
2018-Aug-20 09:55N 33°22' W 119°11'5 9.1
2018-Aug-20 09:23N 33°27' W 119°12'4 9.2
2018-Aug-20 09:00N 33°30' W 119°12'5 9.4
2018-Aug-20 08:29N 33°35' W 119°13'5 9.1
2018-Aug-20 07:59N 33°40' W 119°13'5 8.8
2018-Aug-20 07:28N 33°44' W 119°14'4 8.8
2018-Aug-20 07:03N 33°48' W 119°15'1 8.7
2018-Aug-20 07:00N 33°48' W 119°15'6 8.9
2018-Aug-20 06:19N 33°54' W 119°15'2 9.1
2018-Aug-20 06:03N 33°57' W 119°15'0 9.3
2018-Aug-20 06:00N 33°57' W 119°15'5 9.4
2018-Aug-20 05:26N 34°03' W 119°16'4 9.6
2018-Aug-20 05:03N 34°06' W 119°16'111.1
2018-Aug-20 05:00N 34°07' W 119°16'2 9.7
2018-Aug-20 04:47N 34°09' W 119°17'4 9.8
2018-Aug-20 04:25N 34°13' W 119°17'2 3.7
2018-Aug-20 03:49N 34°15' W 119°16'0 0.0
2018-Aug-20 03:29N 34°15' W 119°16'0 0.0
2018-Aug-20 02:58N 34°15' W 119°16'0 0.0
2018-Aug-20 02:25N 34°15' W 119°16'0 0.0
2018-Aug-20 01:55N 34°15' W 119°16'0 0.0
2018-Aug-20 01:28N 34°15' W 119°16'0 0.3
2018-Aug-20 00:49N 34°14' W 119°16'0 0.5
2018-Aug-20 00:28N 34°15' W 119°16'0 0.8
2018-Aug-20 00:00N 34°15' W 119°16'5 9.4
2018-Aug-19 23:27N 34°13' W 119°22'4 9.7
2018-Aug-19 23:00N 34°12' W 119°27'5 9.4
2018-Aug-19 22:29N 34°10' W 119°32'5 9.3
2018-Aug-19 22:00N 34°09' W 119°38'5 9.3
2018-Aug-19 21:29N 34°07' W 119°43'5 9.3
2018-Aug-19 20:59N 34°05' W 119°48'3 4.8
2018-Aug-19 20:28N 34°04' W 119°51'0 0.0
2018-Aug-19 19:49N 34°04' W 119°51'0 0.0
2018-Aug-19 19:28N 34°04' W 119°51'0 0.0
2018-Aug-19 18:58N 34°04' W 119°51'1 1.8
2018-Aug-19 18:26N 34°04' W 119°52'2 3.3
2018-Aug-19 17:51N 34°05' W 119°54'0 0.0
2018-Aug-19 17:18N 34°05' W 119°54'0 0.0
2018-Aug-19 17:00N 34°05' W 119°54'0 0.0
2018-Aug-19 16:27N 34°05' W 119°54'1 1.5
2018-Aug-19 15:59N 34°05' W 119°54'0 0.1
2018-Aug-19 15:16N 34°04' W 119°54'0 0.0
2018-Aug-19 14:55N 34°04' W 119°54'0 0.0
2018-Aug-19 14:28N 34°04' W 119°54'0 0.1
2018-Aug-19 13:59N 34°04' W 119°54'4 7.1
2018-Aug-19 13:29N 34°05' W 119°49'5 8.7
2018-Aug-19 12:57N 34°05' W 119°44'4 8.7
2018-Aug-19 12:28N 34°08' W 119°39'5 8.9
2018-Aug-19 11:57N 34°09' W 119°34'5 9.1
2018-Aug-19 11:27N 34°11' W 119°29'4 9.1
2018-Aug-19 10:59N 34°12' W 119°24'4 9.1
2018-Aug-19 10:29N 34°14' W 119°19'3 5.8
2018-Aug-19 09:59N 34°15' W 119°16'0 0.0
2018-Aug-19 09:20N 34°15' W 119°16'0 0.0
2018-Aug-19 08:59N 34°15' W 119°16'0 0.0
2018-Aug-19 08:20N 34°15' W 119°16'0 0.0
2018-Aug-19 07:41N 34°15' W 119°16'0 0.0
2018-Aug-19 07:29N 34°15' W 119°16'0 0.0
2018-Aug-19 06:59N 34°15' W 119°16'0 0.0
2018-Aug-19 06:29N 34°15' W 119°16'0 0.0
2018-Aug-19 05:56N 34°15' W 119°16'0 0.0
2018-Aug-19 05:29N 34°15' W 119°16'0 0.0
2018-Aug-19 04:56N 34°15' W 119°16'0 0.0
2018-Aug-19 04:29N 34°15' W 119°16'0 0.0
2018-Aug-19 03:53N 34°15' W 119°16'0 0.0
2018-Aug-19 03:26N 34°15' W 119°16'0 0.0
2018-Aug-19 02:59N 34°15' W 119°16'0 0.0
2018-Aug-19 02:29N 34°15' W 119°16'0 0.5
2018-Aug-19 01:58N 34°15' W 119°16'5 8.7
2018-Aug-19 01:24N 34°14' W 119°22'4 9.7
2018-Aug-19 00:57N 34°13' W 119°27'4 9.4
2018-Aug-19 00:30N 34°13' W 119°32'5 9.1
2018-Aug-19 00:00N 34°12' W 119°38'5 9.5
2018-Aug-18 23:26N 34°11' W 119°44'4 9.6
2018-Aug-18 23:00N 34°11' W 119°49'5 9.5
2018-Aug-18 22:30N 34°10' W 119°55'4 8.7
2018-Aug-18 22:00N 34°10' W 119°60'5 9.5
2018-Aug-18 21:30N 34°09' W 120°06'5 9.7
2018-Aug-18 21:00N 34°09' W 120°11'5 9.9
2018-Aug-18 20:30N 34°08' W 120°17'5 9.6
2018-Aug-18 20:00N 34°07' W 120°23'1 2.8
2018-Aug-18 19:28N 34°07' W 120°25'0 0.0
2018-Aug-18 19:00N 34°07' W 120°25'0 0.0
2018-Aug-18 18:30N 34°07' W 120°25'0 0.5
2018-Aug-18 18:00N 34°07' W 120°25'0 0.0
2018-Aug-18 17:30N 34°07' W 120°25'0 0.0
2018-Aug-18 17:00N 34°07' W 120°25'0 0.0
2018-Aug-18 16:30N 34°07' W 120°25'0 0.0
2018-Aug-18 15:58N 34°07' W 120°25'1 2.5
2018-Aug-18 15:30N 34°06' W 120°23'0 0.3
2018-Aug-18 14:56N 34°06' W 120°23'0 0.0
2018-Aug-18 14:24N 34°06' W 120°23'0 0.0
2018-Aug-18 14:00N 34°06' W 120°23'3 6.3
2018-Aug-18 13:30N 34°03' W 120°21'0 0.1
2018-Aug-18 12:58N 34°03' W 120°21'0 0.0
2018-Aug-18 12:25N 34°03' W 120°21'0 0.0
2018-Aug-18 11:58N 34°03' W 120°21'0 0.0
2018-Aug-18 11:28N 34°03' W 120°21'0 0.0
2018-Aug-18 10:58N 34°03' W 120°21'0 0.0
2018-Aug-18 10:25N 34°03' W 120°21'0 0.0
2018-Aug-18 09:58N 34°03' W 120°21'0 0.0
2018-Aug-18 09:19N 34°03' W 120°21'0 0.0
2018-Aug-18 08:55N 34°03' W 120°21'0 0.0
2018-Aug-18 08:28N 34°03' W 120°21'0 0.0
2018-Aug-18 07:59N 34°03' W 120°21'0 0.0
2018-Aug-18 07:29N 34°03' W 120°21'0 0.0
2018-Aug-18 06:59N 34°03' W 120°21'0 0.0
2018-Aug-18 06:23N 34°03' W 120°21'0 0.0
2018-Aug-18 05:59N 34°03' W 120°21'0 0.0
2018-Aug-18 05:29N 34°03' W 120°21'0 0.0
2018-Aug-18 04:56N 34°03' W 120°21'0 0.0
2018-Aug-18 04:23N 34°03' W 120°21'0 0.0
2018-Aug-18 03:56N 34°03' W 120°21'0 0.0
2018-Aug-18 03:29N 34°03' W 120°21'0 0.0
2018-Aug-18 02:58N 34°03' W 120°21'0 0.0
2018-Aug-18 02:22N 34°03' W 120°21'0 0.0
2018-Aug-18 01:58N 34°03' W 120°21'5 0.6
2018-Aug-17 17:50N 34°04' W 120°27'2 7.5
2018-Aug-17 17:30N 34°05' W 120°25'1 2.6
2018-Aug-17 17:00N 34°06' W 120°24'0 0.0
2018-Aug-17 16:28N 34°06' W 120°24'0 0.0
2018-Aug-17 16:00N 34°06' W 120°24'2 3.1
2018-Aug-17 15:30N 34°07' W 120°26'1 1.1
2018-Aug-17 14:58N 34°07' W 120°27'0 0.1
2018-Aug-17 14:30N 34°07' W 120°27'2 2.0
2018-Aug-17 13:30N 34°06' W 120°25'4 8.6
2018-Aug-17 12:59N 34°05' W 120°19'4 8.7
2018-Aug-17 12:30N 34°05' W 120°14'4 8.7
2018-Aug-17 12:00N 34°06' W 120°09'4 8.8
2018-Aug-17 11:30N 34°07' W 120°04'5 8.9
2018-Aug-17 11:00N 34°07' W 119°58'5 8.8
2018-Aug-17 10:23N 34°08' W 119°52'3 9.0
2018-Aug-17 10:00N 34°09' W 119°48'6 9.4
2018-Aug-17 09:24N 34°10' W 119°41'5 9.5
2018-Aug-17 08:54N 34°11' W 119°36'4 9.8
2018-Aug-17 08:30N 34°12' W 119°31'5 9.8
2018-Aug-17 07:56N 34°13' W 119°25'4 9.4
2018-Aug-17 07:30N 34°14' W 119°20'3 6.4
2018-Aug-17 06:59N 34°15' W 119°16'0 0.0
2018-Aug-17 06:29N 34°15' W 119°16'0 0.0
2018-Aug-17 05:59N 34°15' W 119°16'0 0.0
2018-Aug-17 05:29N 34°15' W 119°16'0 0.0
2018-Aug-17 04:59N 34°15' W 119°16'0 0.0
2018-Aug-17 04:29N 34°15' W 119°16'0 0.0
2018-Aug-17 03:35N 34°15' W 119°16'0 0.1
2018-Aug-17 03:29N 34°15' W 119°16'0 0.0
2018-Aug-17 02:59N 34°15' W 119°16'0 0.0
2018-Aug-17 02:23N 34°15' W 119°16'0 0.0
2018-Aug-17 01:59N 34°15' W 119°16'0 0.0
2018-Aug-17 01:26N 34°15' W 119°16'0 0.0
2018-Aug-17 00:59N 34°15' W 119°16'0 0.0
2018-Aug-17 00:26N 34°15' W 119°16'0 0.0
2018-Aug-16 23:59N 34°15' W 119°16'0 0.0
2018-Aug-16 23:26N 34°15' W 119°16'0 0.0
2018-Aug-16 22:59N 34°15' W 119°16'0 0.0
2018-Aug-16 22:29N 34°15' W 119°16'0 0.0
2018-Aug-16 21:59N 34°15' W 119°16'0 0.0
2018-Aug-16 21:29N 34°15' W 119°16'0 0.0
2018-Aug-16 20:56N 34°15' W 119°16'0 0.0
2018-Aug-16 20:29N 34°15' W 119°16'0 0.0
2018-Aug-16 19:59N 34°15' W 119°16'0 0.0
2018-Aug-16 19:29N 34°15' W 119°16'0 0.0
2018-Aug-16 18:59N 34°15' W 119°16'0 0.0
2018-Aug-16 18:29N 34°15' W 119°16'0 0.0
2018-Aug-16 17:59N 34°15' W 119°16'0 0.0
2018-Aug-16 17:17N 34°15' W 119°16'0 0.0
2018-Aug-16 16:59N 34°15' W 119°16'0 0.0
2018-Aug-16 16:29N 34°15' W 119°16'0 0.0
2018-Aug-16 15:59N 34°15' W 119°16'0 0.0
2018-Aug-16 15:26N 34°15' W 119°16'0 0.0
2018-Aug-16 14:59N 34°15' W 119°16'0 0.0
2018-Aug-16 14:29N 34°15' W 119°16'0 0.0
2018-Aug-16 13:53N 34°15' W 119°16'0 0.0
2018-Aug-16 13:23N 34°15' W 119°16'0 0.0
2018-Aug-16 12:59N 34°15' W 119°16'0 0.0
2018-Aug-16 12:29N 34°15' W 119°16'0 0.0
2018-Aug-16 11:59N 34°15' W 119°16'0 0.0
2018-Aug-16 11:23N 34°15' W 119°16'0 0.0
2018-Aug-16 10:53N 34°15' W 119°16'0 0.0
2018-Aug-16 10:29N 34°15' W 119°16'0 0.0
2018-Aug-16 09:56N 34°15' W 119°16'0 0.0
2018-Aug-16 09:29N 34°15' W 119°16'0 0.0
2018-Aug-16 08:59N 34°15' W 119°16'0 0.0
2018-Aug-16 08:29N 34°15' W 119°16'0 0.0
2018-Aug-16 07:56N 34°15' W 119°16'0 0.0
2018-Aug-16 07:26N 34°15' W 119°16'0 0.0
2018-Aug-16 06:59N 34°15' W 119°16'0 0.0
2018-Aug-16 06:29N 34°15' W 119°16'0 0.0
2018-Aug-16 05:59N 34°15' W 119°16'0 0.0
2018-Aug-16 05:29N 34°15' W 119°16'0 0.0
2018-Aug-16 04:59N 34°15' W 119°16'0 0.0
2018-Aug-16 04:23N 34°15' W 119°16'0 0.0
2018-Aug-16 03:59N 34°15' W 119°16'0 0.0
2018-Aug-16 03:29N 34°15' W 119°16'0 0.0
2018-Aug-16 02:59N 34°15' W 119°16'0 0.0
2018-Aug-16 02:29N 34°15' W 119°16'0 0.0
2018-Aug-16 01:50N 34°15' W 119°16'0 0.0
2018-Aug-16 01:26N 34°15' W 119°16'1 1.6
2018-Aug-16 00:59N 34°14' W 119°16'5 8.7
2018-Aug-16 00:24N 34°09' W 119°15'4 9.2
2018-Aug-16 00:00N 34°05' W 119°15'5 9.2
2018-Aug-15 23:30N 34°01' W 119°13'5 9.2
2018-Aug-15 23:00N 33°56' W 119°12'5 9.1
2018-Aug-15 22:30N 33°52' W 119°11'4 8.7
2018-Aug-15 22:00N 33°48' W 119°09'5 8.9
2018-Aug-15 21:30N 33°43' W 119°08'5 9.0
2018-Aug-15 21:00N 33°39' W 119°06'5 9.6
2018-Aug-15 20:29N 33°34' W 119°05'6 1.8
2018-Aug-15 17:08N 33°29' W 119°03'0 0.0
2018-Aug-15 17:00N 33°29' W 119°03'1 0.4
2018-Aug-15 15:38N 33°29' W 119°04'0 0.1
2018-Aug-15 15:25N 33°29' W 119°04'0 0.0
2018-Aug-15 14:24N 33°29' W 119°04'0 0.0
2018-Aug-15 14:00N 33°29' W 119°04'3 0.6
2018-Aug-15 09:38N 33°27' W 119°02'1 9.1
2018-Aug-15 09:29N 33°26' W 119°02'5 9.2
2018-Aug-15 08:59N 33°21' W 119°03'4 9.1
2018-Aug-15 08:30N 33°17' W 119°03'5 8.8
2018-Aug-15 07:59N 33°12' W 119°03'4 8.6
2018-Aug-15 07:29N 33°08' W 119°04'19 0.5
2018-Aug-13 13:45N 32°49' W 119°10'27 8.8
2018-Aug-13 10:43N 33°16' W 119°11'4 8.6
2018-Aug-13 10:13N 33°20' W 119°11'2 8.9
2018-Aug-13 09:59N 33°23' W 119°12'5 8.9
2018-Aug-13 09:27N 33°27' W 119°12'5 8.9
2018-Aug-13 08:53N 33°32' W 119°13'4 8.6
2018-Aug-13 08:22N 33°37' W 119°13'3 9.0
2018-Aug-13 08:00N 33°40' W 119°14'5 9.3
2018-Aug-13 07:30N 33°45' W 119°14'5 9.6
2018-Aug-13 07:00N 33°49' W 119°14'5 9.8
2018-Aug-13 06:30N 33°54' W 119°15'5 9.6
2018-Aug-13 06:00N 33°59' W 119°15'5 8.9
2018-Aug-13 05:29N 34°04' W 119°16'4 9.0
2018-Aug-13 05:00N 34°08' W 119°16'5 9.2
2018-Aug-13 04:30N 34°13' W 119°16'2 3.8
2018-Aug-13 03:57N 34°15' W 119°16'0 0.0
2018-Aug-13 03:27N 34°15' W 119°16'0 0.0
2018-Aug-13 02:51N 34°15' W 119°16'0 0.0
2018-Aug-13 02:27N 34°15' W 119°16'0 0.0
2018-Aug-13 01:23N 34°15' W 119°16'2 5.5
2018-Aug-13 01:00N 34°13' W 119°18'5 9.5
2018-Aug-13 00:30N 34°09' W 119°21'5 9.4
2018-Aug-12 23:59N 34°05' W 119°24'5 8.1
2018-Aug-12 23:25N 34°01' W 119°26'0 0.1
2018-Aug-12 22:55N 34°01' W 119°26'0 0.0
2018-Aug-12 22:25N 34°01' W 119°26'0 0.0
2018-Aug-12 21:58N 34°01' W 119°26'0 0.1
2018-Aug-12 21:26N 34°01' W 119°26'3 6.4
2018-Aug-12 21:00N 34°01' W 119°23'1 2.1
2018-Aug-12 20:30N 34°01' W 119°22'1 1.0
2018-Aug-12 20:00N 34°01' W 119°22'0 0.0
2018-Aug-12 19:30N 34°01' W 119°22'0 0.0
2018-Aug-12 18:57N 34°01' W 119°22'0 0.1
2018-Aug-12 18:29N 34°01' W 119°22'1 1.7
2018-Aug-12 17:56N 34°01' W 119°23'0 0.0
2018-Aug-12 17:05N 34°01' W 119°23'0 0.0
2018-Aug-12 16:59N 34°01' W 119°23'0 0.0
2018-Aug-12 16:29N 34°01' W 119°23'4 7.4
2018-Aug-12 16:00N 34°04' W 119°23'5 9.1
2018-Aug-12 15:30N 34°08' W 119°20'5 9.3
2018-Aug-12 14:59N 34°12' W 119°18'3 5.2
2018-Aug-12 14:29N 34°15' W 119°16'0 0.0
2018-Aug-12 13:59N 34°15' W 119°16'0 0.0
2018-Aug-12 13:29N 34°15' W 119°16'0 0.0
2018-Aug-12 12:59N 34°15' W 119°16'0 0.0
2018-Aug-12 12:29N 34°15' W 119°16'0 0.0
2018-Aug-12 11:59N 34°15' W 119°16'0 0.0
2018-Aug-12 11:29N 34°15' W 119°16'0 0.0
2018-Aug-12 10:59N 34°15' W 119°16'0 0.0
2018-Aug-12 10:26N 34°15' W 119°16'0 0.0
2018-Aug-12 09:59N 34°15' W 119°16'0 0.0
2018-Aug-12 09:26N 34°15' W 119°16'0 0.0
2018-Aug-12 08:59N 34°15' W 119°16'0 0.0
2018-Aug-12 08:17N 34°15' W 119°16'0 0.0
2018-Aug-12 07:56N 34°15' W 119°16'0 0.0
2018-Aug-12 07:29N 34°15' W 119°16'0 0.0
2018-Aug-12 06:53N 34°15' W 119°16'0 0.0
2018-Aug-12 06:29N 34°15' W 119°16'0 0.0
2018-Aug-12 05:59N 34°15' W 119°16'0 0.0
2018-Aug-12 05:23N 34°15' W 119°16'0 0.0
2018-Aug-12 04:59N 34°15' W 119°16'0 0.0
2018-Aug-12 04:29N 34°15' W 119°16'0 0.0
2018-Aug-12 03:59N 34°15' W 119°16'0 0.0
2018-Aug-12 03:29N 34°15' W 119°16'0 0.0
2018-Aug-12 02:59N 34°15' W 119°16'0 0.0
2018-Aug-12 02:26N 34°15' W 119°16'0 0.0
2018-Aug-12 01:59N 34°15' W 119°16'0 0.0
2018-Aug-12 01:29N 34°15' W 119°16'0 0.0
2018-Aug-12 00:59N 34°15' W 119°16'0 0.0
2018-Aug-12 00:24N 34°15' W 119°16'0 0.0
2018-Aug-11 23:59N 34°15' W 119°16'0 0.0
2018-Aug-11 23:29N 34°15' W 119°16'0 0.3
2018-Aug-11 22:58N 34°14' W 119°16'0 0.1
2018-Aug-11 22:30N 34°15' W 119°16'0 0.3
2018-Aug-11 21:59N 34°15' W 119°16'3 5.3
2018-Aug-11 21:29N 34°13' W 119°19'5 9.3
2018-Aug-11 21:00N 34°10' W 119°23'5 9.3
2018-Aug-11 20:30N 34°07' W 119°27'3 6.7
2018-Aug-11 20:00N 34°05' W 119°30'3 2.0
2018-Aug-11 18:23N 34°03' W 119°33'0 0.5
2018-Aug-11 18:00N 34°03' W 119°33'2 2.6
2018-Aug-11 17:21N 34°03' W 119°35'0 0.0
2018-Aug-11 16:39N 34°03' W 119°35'0 0.0
2018-Aug-11 16:03N 34°03' W 119°35'0 0.0
2018-Aug-11 16:00N 34°03' W 119°35'1 1.2
2018-Aug-11 15:19N 34°03' W 119°36'0 0.0
2018-Aug-11 14:55N 34°03' W 119°36'0 0.0
2018-Aug-11 14:28N 34°03' W 119°36'0 0.0
2018-Aug-11 13:49N 34°03' W 119°36'0 1.0
2018-Aug-11 13:30N 34°03' W 119°36'1 2.2
2018-Aug-11 12:58N 34°03' W 119°35'4 7.9
2018-Aug-11 12:26N 34°02' W 119°30'5 8.6
2018-Aug-11 11:55N 33°59' W 119°26'4 8.9
2018-Aug-11 11:29N 33°56' W 119°23'4 9.2
2018-Aug-11 11:00N 33°53' W 119°19'710.1
2018-Aug-11 10:20N 33°49' W 119°13'17 9.7
2018-Aug-11 08:35N 33°41' W 118°55'1 9.3
2018-Aug-11 08:28N 33°40' W 118°54'4 9.5
2018-Aug-11 08:00N 33°38' W 118°50'5 9.3
2018-Aug-11 07:30N 33°35' W 118°45'14 3.3
2018-Aug-11 03:14N 33°27' W 118°31'0 0.0
2018-Aug-11 02:56N 33°27' W 118°31'0 0.0
2018-Aug-11 01:02N 33°27' W 118°31'0 0.1
2018-Aug-11 00:59N 33°27' W 118°31'2 3.5
2018-Aug-11 00:30N 33°29' W 118°32'0 0.6
2018-Aug-10 23:39N 33°29' W 118°33'0 0.0
2018-Aug-10 23:18N 33°29' W 118°33'0 0.0
2018-Aug-10 22:57N 33°29' W 118°33'0 0.0
2018-Aug-10 20:51N 33°29' W 118°33'1 2.0
2018-Aug-10 20:30N 33°29' W 118°34'3 1.2
2018-Aug-10 17:41N 33°28' W 118°30'  

Dump ship's entire track history